Station Historical Data
Daily Summary for January 30, 2017 Units:  Metric    English   Both
« Previous Day
Next Day »
Daily Weekly Monthly Yearly Custom
  High: Low: Average:
Temperature: -4.3 °C -11.4 °C -7.1 °C
Dew Point: -8.2 °C -13.5 °C -10.6 °C
Humidity: 92% 59% 77%
Wind Speed: 14.5km/h 0km/h 2.9km/h
Wind Gust: 19.3km/h - -
Wind- - WSW
Pressure: 1015.1 hPa 1008.7 hPa -
Precipitation: 0 mm    
Historical Graphs
 
 
Tabular Data for January 30, 2017
Time Temperature Dew Point Pressure Wind Wind Speed Wind Gust Humidity Rainfall Rate (Hourly)
00:04 -5.7 °C -8.2 °C 1008.7 hPa NNW 3.2 km/h 8 km/h 83% 0 mm
00:09 -5.7 °C -8.2 °C 1008.7 hPa North 3.2 km/h 6.4 km/h 83% 0 mm
00:14 -5.8 °C -8.3 °C 1009 hPa NNW 1.6 km/h 6.4 km/h 82% 0 mm
00:19 -5.8 °C -8.4 °C 1008.7 hPa Calm     82% 0 mm
00:24 -5.9 °C -8.5 °C 1008.7 hPa NNW 1.6 km/h 8 km/h 82% 0 mm
00:29 -6 °C -8.7 °C 1008.7 hPa NNW 1.6 km/h 8 km/h 81% 0 mm
00:34 -6.2 °C -8.9 °C 1008.7 hPa NNW 1.6 km/h 3.2 km/h 81% 0 mm
00:39 -6.3 °C -9 °C 1008.7 hPa Calm     81% 0 mm
00:44 -6.4 °C -9.3 °C 1008.7 hPa Calm     80% 0 mm
00:49 -6.7 °C -9.7 °C 1008.7 hPa Calm     79% 0 mm
00:54 -6.9 °C -9.9 °C 1009 hPa Calm     79% 0 mm
00:59 -7.1 °C -10.1 °C 1009 hPa Calm     79% 0 mm
01:04 -7.2 °C -10.2 °C 1009 hPa Calm     79% 0 mm
01:09 -7.3 °C -10.3 °C 1009 hPa Calm     79% 0 mm
01:14 -7.6 °C -10.7 °C 1009 hPa Calm     78% 0 mm
01:19 -7.9 °C -11.1 °C 1009 hPa Calm     78% 0 mm
01:24 -8.1 °C -11.1 °C 1009 hPa Calm     79% 0 mm
01:29 -8.2 °C -11.4 °C 1009 hPa Calm     78% 0 mm
01:34 -8.4 °C -11.4 °C 1009 hPa Calm     79% 0 mm
01:39 -8.6 °C -11.6 °C 1009 hPa Calm     79% 0 mm
01:44 -8.8 °C -11.8 °C 1009 hPa Calm     79% 0 mm
01:49 -9 °C -12.1 °C 1009 hPa Calm     78% 0 mm
01:54 -9.2 °C -12.2 °C 1009 hPa Calm     79% 0 mm
01:59 -9.4 °C -12.2 °C 1009 hPa Calm     80% 0 mm
02:04 -9.6 °C -12.4 °C 1009 hPa Calm     80% 0 mm
02:09 -9.7 °C -12.4 °C 1009 hPa Calm     80% 0 mm
02:14 -9.8 °C -12.6 °C 1009 hPa Calm     80% 0 mm
02:19 -9.9 °C -12.7 °C 1009 hPa Calm     80% 0 mm
02:24 -10.1 °C -12.8 °C 1009 hPa Calm     81% 0 mm
02:29 -10.2 °C -12.8 °C 1009 hPa Calm     81% 0 mm
02:34 -10.3 °C -12.9 °C 1009.4 hPa Calm     81% 0 mm
02:39 -10.5 °C -13.1 °C 1009.4 hPa Calm     81% 0 mm
02:44 -10.6 °C -13.2 °C 1009.4 hPa Calm     81% 0 mm
02:49 -10.7 °C -13.3 °C 1009.4 hPa Calm     81% 0 mm
02:59 -10.9 °C -13.4 °C 1009.4 hPa Calm     82% 0 mm
03:04 -11.1 °C -13.5 °C 1009.4 hPa Calm     82% 0 mm
03:09 -11.2 °C -13.5 °C 1009.4 hPa Calm     83% 0 mm
03:14 -11.2 °C -13.5 °C 1009.4 hPa Calm     83% 0 mm
03:19 -11.3 °C -13.4 °C 1009.4 hPa Calm     84% 0 mm
03:24 -11.3 °C -13.4 °C 1009.4 hPa Calm     84% 0 mm
03:29 -11.3 °C -13.3 °C 1009.4 hPa Calm     85% 0 mm
03:34 -11.3 °C -13.3 °C 1009.4 hPa Calm     85% 0 mm
03:44 -11.4 °C -13.3 °C 1009.4 hPa Calm     86% 0 mm
03:49 -11.4 °C -13.3 °C 1009.4 hPa Calm     86% 0 mm
03:54 -11.4 °C -13.3 °C 1009.4 hPa Calm     86% 0 mm
03:59 -11.4 °C -13.3 °C 1009.4 hPa Calm     86% 0 mm
04:04 -11.4 °C -13.3 °C 1009.4 hPa Calm     86% 0 mm
04:09 -11.4 °C -13.1 °C 1009.7 hPa Calm     87% 0 mm
04:14 -11.4 °C -13.2 °C 1009.7 hPa Calm     87% 0 mm
04:19 -11.4 °C -13.1 °C 1009.7 hPa Calm     87% 0 mm
04:24 -11.4 °C -13.1 °C 1009.7 hPa Calm     87% 0 mm
04:29 -11.3 °C -13.1 °C 1009.7 hPa Calm     87% 0 mm
04:34 -11.2 °C -12.8 °C 1009.7 hPa Calm     88% 0 mm
04:39 -11.2 °C -12.8 °C 1009.7 hPa Calm     88% 0 mm
04:44 -11.1 °C -12.5 °C 1009.7 hPa Calm     89% 0 mm
04:49 -10.9 °C -12.4 °C 1009.7 hPa Calm     89% 0 mm
04:54 -10.9 °C -12.3 °C 1009.7 hPa Calm     89% 0 mm
04:59 -10.8 °C -12.3 °C 1009.7 hPa Calm     89% 0 mm
05:04 -10.8 °C -12.2 °C 1010 hPa Calm     89% 0 mm
05:09 -10.7 °C -12.2 °C 1010 hPa Calm     89% 0 mm
05:19 -10.6 °C -12.1 °C 1010 hPa Calm     89% 0 mm
05:24 -10.6 °C -12 °C 1010 hPa Calm     89% 0 mm
05:29 -10.4 °C -11.8 °C 1010 hPa Calm     90% 0 mm
05:34 -10.4 °C -11.8 °C 1010 hPa Calm     90% 0 mm
05:39 -10.3 °C -11.6 °C 1010.4 hPa Calm     90% 0 mm
05:44 -10.2 °C -11.5 °C 1010.4 hPa Calm     90% 0 mm
05:49 -10.1 °C -11.4 °C 1010 hPa Calm     90% 0 mm
05:54 -9.9 °C -11.3 °C 1010.4 hPa Calm     90% 0 mm
05:59 -9.8 °C -10.9 °C 1010.4 hPa Calm     91% 0 mm
06:04 -9.7 °C -10.8 °C 1010.4 hPa Calm     91% 0 mm
06:09 -9.4 °C -10.7 °C 1010.4 hPa Calm     91% 0 mm
06:14 -9.3 °C -10.5 °C 1010.4 hPa Calm     91% 0 mm
06:19 -9.1 °C -10.3 °C 1010.4 hPa Calm   3.2 km/h 91% 0 mm
06:24 -8.9 °C -9.9 °C 1010.4 hPa Calm   3.2 km/h 92% 0 mm
06:29 -8.8 °C -10 °C 1010.4 hPa Calm   3.2 km/h 91% 0 mm
06:34 -8.7 °C -9.7 °C 1010.4 hPa Calm     92% 0 mm
06:39 -8.6 °C -9.8 °C 1010.4 hPa Calm     91% 0 mm
06:44 -8.6 °C -9.8 °C 1010.7 hPa Calm     91% 0 mm
06:49 -8.6 °C -9.8 °C 1010.4 hPa Calm     91% 0 mm
06:54 -8.6 °C -9.8 °C 1010.7 hPa Calm     91% 0 mm
06:59 -8.5 °C -9.7 °C 1010.7 hPa Calm     91% 0 mm
07:04 -8.5 °C -9.7 °C 1010.7 hPa Calm     91% 0 mm
07:09 -8.6 °C -9.8 °C 1010.7 hPa Calm     91% 0 mm
07:14 -8.6 °C -9.8 °C 1010.7 hPa Calm     91% 0 mm
07:19 -8.7 °C -9.9 °C 1011.1 hPa Calm     91% 0 mm
07:24 -8.8 °C -10.1 °C 1011.1 hPa Calm     91% 0 mm
07:29 -8.9 °C -10.1 °C 1011.1 hPa Calm     91% 0 mm
07:34 -9 °C -10.2 °C 1011.1 hPa Calm   3.2 km/h 91% 0 mm
07:39 -9.1 °C -10.4 °C 1011.4 hPa Calm   3.2 km/h 90% 0 mm
07:44 -9.2 °C -10.6 °C 1011.4 hPa NNW 1.6 km/h 4.8 km/h 90% 0 mm
07:49 -9.2 °C -10.6 °C 1011.4 hPa NNW 3.2 km/h 3.2 km/h 90% 0 mm
07:54 -9.2 °C -10.4 °C 1011.4 hPa NNW 1.6 km/h 3.2 km/h 91% 0 mm
07:59 -9 °C -10.2 °C 1011.4 hPa NNW 1.6 km/h 6.4 km/h 91% 0 mm
08:04 -8.8 °C -10 °C 1011.4 hPa NNW 3.2 km/h 8 km/h 91% 0 mm
08:09 -8.6 °C -9.8 °C 1011.4 hPa North 3.2 km/h 8 km/h 91% 0 mm
08:14 -8.5 °C -9.7 °C 1011.7 hPa North 1.6 km/h 4.8 km/h 91% 0 mm
08:19 -8.3 °C -9.5 °C 1011.7 hPa NE 3.2 km/h 4.8 km/h 91% 0 mm
08:24 -8.1 °C -9.3 °C 1011.7 hPa NE 1.6 km/h 4.8 km/h 91% 0 mm
08:29 -7.9 °C -9.2 °C 1011.7 hPa NE 1.6 km/h 4.8 km/h 91% 0 mm
08:39 -7.8 °C -9 °C 1012.1 hPa NE 1.6 km/h 3.2 km/h 91% 0 mm
08:44 -7.7 °C -8.9 °C 1012.1 hPa NE 3.2 km/h 6.4 km/h 91% 0 mm
08:49 -7.5 °C -8.8 °C 1012.1 hPa NE 3.2 km/h 4.8 km/h 90% 0 mm
08:54 -7.4 °C -8.7 °C 1012.1 hPa NE 1.6 km/h 4.8 km/h 90% 0 mm
08:59 -7.2 °C -8.7 °C 1012.1 hPa NE 4.8 km/h 6.4 km/h 89% 0 mm
09:04 -7.2 °C -8.8 °C 1012.1 hPa NE 3.2 km/h 6.4 km/h 88% 0 mm
09:14 -7.3 °C -9.2 °C 1012.4 hPa North 1.6 km/h 6.4 km/h 86% 0 mm
09:19 -7.1 °C -9.1 °C 1012.4 hPa NNE 3.2 km/h 4.8 km/h 86% 0 mm
09:24 -7.1 °C -9.2 °C 1012.4 hPa NNE 1.6 km/h 6.4 km/h 85% 0 mm
09:29 -7.1 °C -9.3 °C 1012.4 hPa NNW 6.4 km/h 6.4 km/h 84% 0 mm
09:34 -7.1 °C -9.3 °C 1012.8 hPa NE 1.6 km/h 6.4 km/h 84% 0 mm
09:39 -7.1 °C -9.3 °C 1012.8 hPa NNE 3.2 km/h 6.4 km/h 84% 0 mm
09:44 -6.7 °C -9.1 °C 1012.8 hPa NE 3.2 km/h 6.4 km/h 83% 0 mm
09:49 -6.6 °C -9.2 °C 1012.8 hPa NNE 3.2 km/h 9.7 km/h 82% 0 mm
09:59 -6.2 °C -9.1 °C 1013.1 hPa NNE 3.2 km/h 11.3 km/h 80% 0 mm
10:04 -6.3 °C -9.4 °C 1013.1 hPa North 8 km/h 9.7 km/h 79% 0 mm
10:09 -6.5 °C -9.4 °C 1013.1 hPa North 4.8 km/h 9.7 km/h 80% 0 mm
10:14 -6.7 °C -9.6 °C 1013.1 hPa North 4.8 km/h 8 km/h 80% 0 mm
10:24 -6.3 °C -9.2 °C 1013.4 hPa North 3.2 km/h 8 km/h 80% 0 mm
10:29 -6.4 °C -9.5 °C 1013.4 hPa NNW 11.3 km/h 11.3 km/h 79% 0 mm
10:34 -6.5 °C -9.6 °C 1013.4 hPa NNW 4.8 km/h 11.3 km/h 79% 0 mm
10:40 -6.3 °C -9.4 °C 1013.4 hPa NNW 4.8 km/h 11.3 km/h 79% 0 mm
10:49 -6.2 °C -9.4 °C 1013.4 hPa North 4.8 km/h 8 km/h 78% 0 mm
10:54 -6.5 °C -9.6 °C 1013.4 hPa North 4.8 km/h 11.3 km/h 79% 0 mm
10:59 -6.2 °C -9.4 °C 1013.4 hPa North 1.6 km/h 9.7 km/h 78% 0 mm
11:04 -6.2 °C -9.6 °C 1013.4 hPa Calm   8 km/h 77% 0 mm
11:14 -5.7 °C -9.3 °C 1013.4 hPa North 4.8 km/h 11.3 km/h 76% 0 mm
11:19 -6.2 °C -9.7 °C 1013.4 hPa NNW 4.8 km/h 11.3 km/h 76% 0 mm
11:29 -6.4 °C -10 °C 1013.4 hPa North 4.8 km/h 8 km/h 76% 0 mm
11:39 -5.9 °C -9.8 °C 1013.4 hPa WNW 4.8 km/h 9.7 km/h 74% 0 mm
11:44 -6.1 °C -9.9 °C 1013.4 hPa West 3.2 km/h 9.7 km/h 74% 0 mm
11:49 -5.9 °C -9.7 °C 1013.4 hPa WNW 3.2 km/h 9.7 km/h 75% 0 mm
11:59 -5.6 °C -9.6 °C 1013.4 hPa NNW 3.2 km/h 8 km/h 73% 0 mm
12:24 -5.3 °C -9.9 °C 1013.4 hPa NNW 4.8 km/h 9.7 km/h 70% 0 mm
12:29 -5.1 °C -9.7 °C 1013.1 hPa NNW 4.8 km/h 9.7 km/h 70% 0 mm
12:39 -5.3 °C -9.2 °C 1013.1 hPa NW 6.4 km/h 11.3 km/h 74% 0 mm
12:44 -5.4 °C -9.7 °C 1013.1 hPa NNW 6.4 km/h 12.9 km/h 72% 0 mm
12:49 -5.4 °C -9.7 °C 1013.1 hPa NNW 4.8 km/h 12.9 km/h 72% 0 mm
12:54 -5.3 °C -9.6 °C 1013.1 hPa NW 4.8 km/h 11.3 km/h 72% 0 mm
13:09 -5 °C -9.3 °C 1013.1 hPa NW 3.2 km/h 8 km/h 72% 0 mm
13:14 -5.1 °C -9.4 °C 1013.1 hPa NW 4.8 km/h 14.5 km/h 72% 0 mm
13:19 -5.3 °C -9.2 °C 1013.1 hPa NW 6.4 km/h 14.5 km/h 74% 0 mm
13:24 -5.3 °C -9.4 °C 1013.1 hPa NW 4.8 km/h 11.3 km/h 73% 0 mm
13:29 -5.6 °C -9.6 °C 1013.1 hPa NNW 4.8 km/h 11.3 km/h 73% 0 mm
13:34 -5.3 °C -9.4 °C 1013.1 hPa NNW 3.2 km/h 9.7 km/h 73% 0 mm
13:39 -5.2 °C -9.3 °C 1013.1 hPa WNW 4.8 km/h 11.3 km/h 73% 0 mm
13:44 -5.3 °C -9.4 °C 1013.1 hPa West 3.2 km/h 11.3 km/h 73% 0 mm
13:49 -5.3 °C -9.9 °C 1013.1 hPa NW 4.8 km/h 9.7 km/h 70% 0 mm
13:54 -5.3 °C -9.9 °C 1013.1 hPa NW 3.2 km/h 11.3 km/h 70% 0 mm
13:59 -5.1 °C -9.9 °C 1013.1 hPa West 1.6 km/h 9.7 km/h 69% 0 mm
14:04 -4.7 °C -9.4 °C 1013.1 hPa NNW 4.8 km/h 8 km/h 70% 0 mm
14:09 -4.3 °C -9.2 °C 1013.1 hPa North 6.4 km/h 9.7 km/h 69% 0 mm
14:14 -4.4 °C -9.4 °C 1013.1 hPa NNW 4.8 km/h 9.7 km/h 68% 0 mm
14:19 -4.5 °C -9.3 °C 1013.1 hPa North 3.2 km/h 8 km/h 69% 0.76 mm
14:24 -4.6 °C -9.4 °C 1013.1 hPa North 4.8 km/h 11.3 km/h 69% 1.02 mm
14:29 -4.9 °C -9.5 °C 1013.1 hPa NNW 4.8 km/h 11.3 km/h 70% 1.02 mm
14:39 -5.2 °C -9.8 °C 1013.1 hPa NW 3.2 km/h 8 km/h 70% 1.27 mm
14:44 -5.1 °C -9.9 °C 1013.1 hPa WNW 4.8 km/h 11.3 km/h 69% 1.27 mm
14:49 -4.9 °C -9.7 °C 1013.4 hPa West 6.4 km/h 11.3 km/h 69% 1.27 mm
14:54 -4.8 °C -10 °C 1013.4 hPa WNW 4.8 km/h 11.3 km/h 67% 1.27 mm
14:59 -4.9 °C -10.1 °C 1013.4 hPa WNW 8 km/h 11.3 km/h 67% 1.27 mm
15:04 -5.1 °C -10.4 °C 1013.4 hPa West 6.4 km/h 16.1 km/h 66% 1.27 mm
15:09 -5.2 °C -10.3 °C 1013.4 hPa West 9.7 km/h 16.1 km/h 67% 1.27 mm
15:14 -5 °C -10.2 °C 1013.4 hPa West 6.4 km/h 16.1 km/h 67% 1.27 mm
15:19 -4.8 °C -10.2 °C 1013.4 hPa West 6.4 km/h 16.1 km/h 66% 0.51 mm
15:24 -4.7 °C -10.1 °C 1013.4 hPa West 6.4 km/h 16.1 km/h 66% 0.25 mm
15:34 -4.4 °C -10.1 °C 1013.8 hPa WNW 6.4 km/h 12.9 km/h 65% 0.25 mm
15:39 -4.8 °C -10 °C 1013.4 hPa WNW 6.4 km/h 12.9 km/h 67% 0.25 mm
15:44 -4.6 °C -9.8 °C 1013.4 hPa WNW 4.8 km/h 8 km/h 67% 0.25 mm
15:49 -4.8 °C -10.3 °C 1013.4 hPa West 3.2 km/h 11.3 km/h 65% 0.25 mm
15:54 -4.8 °C -10.3 °C 1013.8 hPa NW 3.2 km/h 8 km/h 65% 0.51 mm
15:59 -4.5 °C -10.3 °C 1013.8 hPa West 4.8 km/h 9.7 km/h 64% 0.51 mm
16:04 -4.6 °C -10.6 °C 1013.8 hPa West 4.8 km/h 12.9 km/h 63% 0.51 mm
16:09 -4.4 °C -11.3 °C 1013.8 hPa WNW 14.5 km/h 19.3 km/h 59% 0.51 mm
16:14 -4.6 °C -11.4 °C 1013.8 hPa West 6.4 km/h 14.5 km/h 59% 0.51 mm
16:19 -4.6 °C -11.4 °C 1013.8 hPa West 8 km/h 16.1 km/h 59% 0.51 mm
16:24 -4.8 °C -11.4 °C 1013.8 hPa West 8 km/h 17.7 km/h 60% 0.51 mm
16:29 -4.7 °C -11.3 °C 1013.8 hPa West 6.4 km/h 17.7 km/h 60% 0.25 mm
16:34 -4.8 °C -11.2 °C 1013.8 hPa West 6.4 km/h 14.5 km/h 61% 0.25 mm
16:39 -4.9 °C -11.1 °C 1013.8 hPa West 6.4 km/h 14.5 km/h 62% 0.25 mm
16:44 -5.1 °C -11 °C 1013.8 hPa West 8 km/h 14.5 km/h 63% 0.25 mm
16:49 -5.2 °C -10.6 °C 1014.1 hPa West 4.8 km/h 12.9 km/h 66% 0.25 mm
16:54 -5.3 °C -10.5 °C 1014.1 hPa WNW 3.2 km/h 11.3 km/h 67% 0 mm
16:59 -5.3 °C -10.8 °C 1014.1 hPa West 1.6 km/h 8 km/h 65% 0 mm
17:04 -5.2 °C -11.4 °C 1014.1 hPa West 6.4 km/h 17.7 km/h 62% 0 mm
17:09 -5.3 °C -11.5 °C 1014.1 hPa WNW 4.8 km/h 11.3 km/h 62% 0 mm
17:14 -5.4 °C -11.6 °C 1014.1 hPa West 3.2 km/h 11.3 km/h 62% 0 mm
17:19 -5.6 °C -11.7 °C 1014.1 hPa WNW 4.8 km/h 9.7 km/h 62% 0 mm
17:24 -5.7 °C -11.7 °C 1014.1 hPa West 4.8 km/h 9.7 km/h 63% 0 mm
17:29 -5.7 °C -11.7 °C 1014.1 hPa WSW 4.8 km/h 11.3 km/h 63% 0 mm
17:34 -5.7 °C -11.7 °C 1014.4 hPa WSW 4.8 km/h 14.5 km/h 63% 0 mm
17:39 -5.8 °C -11.5 °C 1014.4 hPa West 4.8 km/h 14.5 km/h 64% 0 mm
17:44 -5.8 °C -11.6 °C 1014.4 hPa West 4.8 km/h 8 km/h 64% 0 mm
17:49 -5.9 °C -11.4 °C 1014.4 hPa West 6.4 km/h 8 km/h 65% 0 mm
17:54 -6 °C -11.3 °C 1014.4 hPa West 3.2 km/h 8 km/h 66% 0 mm
17:59 -6.2 °C -11.3 °C 1014.4 hPa West 3.2 km/h 8 km/h 67% 0 mm
18:04 -6.2 °C -11.3 °C 1014.8 hPa Calm   8 km/h 67% 0 mm
18:09 -6.2 °C -11.1 °C 1014.8 hPa West 3.2 km/h 9.7 km/h 68% 0 mm
18:14 -5.9 °C -10.9 °C 1014.8 hPa WNW 3.2 km/h 9.7 km/h 68% 0 mm
18:19 -5.9 °C -10.9 °C 1014.8 hPa WNW 3.2 km/h 11.3 km/h 68% 0 mm
18:24 -6.1 °C -11.1 °C 1014.8 hPa West 4.8 km/h 11.3 km/h 68% 0 mm
18:29 -6.1 °C -11 °C 1014.8 hPa West 4.8 km/h 11.3 km/h 68% 0 mm
18:34 -6 °C -10.9 °C 1014.8 hPa West 4.8 km/h 11.3 km/h 68% 0 mm
18:39 -6 °C -10.8 °C 1015.1 hPa West 4.8 km/h 9.7 km/h 69% 0 mm
18:44 -6.1 °C -10.8 °C 1015.1 hPa WNW 6.4 km/h 9.7 km/h 69% 0 mm
18:49 -6.1 °C -10.7 °C 1015.1 hPa NW 6.4 km/h 11.3 km/h 70% 0 mm
18:54 -6.2 °C -10.8 °C 1015.1 hPa West 6.4 km/h 12.9 km/h 70% 0 mm
18:59 -6.1 °C -10.7 °C 1015.1 hPa WNW 6.4 km/h 12.9 km/h 70% 0 mm
19:04 -6 °C -10.6 °C 1015.1 hPa WNW 4.8 km/h 11.3 km/h 70% 0 mm
19:09 -5.9 °C -10.5 °C 1015.1 hPa WNW 4.8 km/h 9.7 km/h 70% 0 mm
19:14 -5.8 °C -10.4 °C 1015.1 hPa WNW 4.8 km/h 11.3 km/h 70% 0 mm
19:19 -5.7 °C -10.3 °C 1015.1 hPa West 3.2 km/h 6.4 km/h 70% 0 mm
19:24 -5.7 °C -10.3 °C 1015.1 hPa West 4.8 km/h 8 km/h 70% 0 mm
19:29 -5.6 °C -10.2 °C 1015.1 hPa WNW 4.8 km/h 9.7 km/h 70% 0 mm
19:34 -5.6 °C -10.3 °C 1015.1 hPa WNW 4.8 km/h 9.7 km/h 69% 0 mm
19:39 -5.6 °C -10.4 °C 1015.1 hPa WNW 4.8 km/h 11.3 km/h 69% 0 mm
19:44 -5.7 °C -10.3 °C 1014.8 hPa WNW 4.8 km/h 11.3 km/h 70% 0 mm
19:49 -5.6 °C -10.4 °C 1014.8 hPa WNW 4.8 km/h 9.7 km/h 69% 0 mm
19:54 -5.6 °C -10.3 °C 1014.8 hPa West 4.8 km/h 11.3 km/h 69% 0 mm
19:59 -5.6 °C -10.7 °C 1014.8 hPa NW 8 km/h 16.1 km/h 67% 0 mm
20:04 -5.6 °C -10.6 °C 1014.8 hPa WSW 8 km/h 14.5 km/h 68% 0 mm
20:09 -5.7 °C -10.4 °C 1014.8 hPa West 6.4 km/h 14.5 km/h 69% 0 mm
20:14 -5.8 °C -10.7 °C 1014.8 hPa West 8 km/h 12.9 km/h 68% 0 mm
20:19 -5.7 °C -10.7 °C 1014.8 hPa West 3.2 km/h 8 km/h 68% 0 mm
20:24 -5.8 °C -10.9 °C 1014.4 hPa WSW 6.4 km/h 8 km/h 67% 0 mm
20:29 -5.7 °C -10.9 °C 1014.4 hPa West 4.8 km/h 8 km/h 67% 0 mm
20:34 -5.7 °C -11.1 °C 1014.4 hPa West 3.2 km/h 8 km/h 66% 0 mm
20:39 -5.7 °C -10.9 °C 1014.4 hPa West 3.2 km/h 8 km/h 67% 0 mm
20:44 -5.8 °C -10.9 °C 1014.1 hPa West 3.2 km/h 8 km/h 67% 0 mm
20:49 -5.8 °C -10.8 °C 1014.1 hPa West 1.6 km/h 4.8 km/h 68% 0 mm
20:54 -5.8 °C -11 °C 1014.1 hPa West 3.2 km/h 6.4 km/h 67% 0 mm
20:59 -5.8 °C -11 °C 1014.1 hPa WNW 3.2 km/h 8 km/h 67% 0 mm
21:04 -5.9 °C -11.2 °C 1014.1 hPa West 3.2 km/h 9.7 km/h 66% 0 mm
21:09 -5.8 °C -11 °C 1014.1 hPa West 4.8 km/h 11.3 km/h 67% 0 mm
21:14 -5.8 °C -11 °C 1014.1 hPa West 3.2 km/h 11.3 km/h 67% 0 mm
21:19 -5.8 °C -10.8 °C 1014.1 hPa NW 4.8 km/h 6.4 km/h 68% 0 mm
21:24 -5.8 °C -10.6 °C 1013.8 hPa WSW 4.8 km/h 12.9 km/h 69% 0 mm
21:29 -5.9 °C -10.6 °C 1013.8 hPa West 6.4 km/h 6.4 km/h 70% 0 mm
21:34 -6 °C -10.4 °C 1013.8 hPa WNW 1.6 km/h 8 km/h 71% 0 mm
21:39 -6.1 °C -10.3 °C 1013.8 hPa WNW 3.2 km/h 8 km/h 72% 0 mm
21:44 -6.2 °C -10.2 °C 1013.8 hPa WNW 1.6 km/h 6.4 km/h 73% 0 mm
21:49 -6.2 °C -10.2 °C 1013.8 hPa West 1.6 km/h 8 km/h 73% 0 mm
21:54 -6.2 °C -10.3 °C 1013.8 hPa Calm   1.6 km/h 73% 0 mm
21:59 -6.2 °C -10.3 °C 1013.8 hPa Calm   3.2 km/h 73% 0 mm
22:04 -6.2 °C -10.3 °C 1013.8 hPa Calm   4.8 km/h 73% 0 mm
22:09 -6.2 °C -10.4 °C 1013.8 hPa Calm   1.6 km/h 72% 0 mm
22:14 -6.2 °C -10.3 °C 1013.8 hPa Calm   1.6 km/h 73% 0 mm
22:19 -6.3 °C -10.4 °C 1013.8 hPa Calm   1.6 km/h 73% 0 mm
22:24 -6.4 °C -10.3 °C 1013.8 hPa Calm     74% 0 mm
22:29 -6.5 °C -10.4 °C 1013.8 hPa SW 1.6 km/h 4.8 km/h 74% 0 mm
22:34 -6.4 °C -10.3 °C 1014.1 hPa SSW 1.6 km/h 4.8 km/h 74% 0 mm
22:39 -6.3 °C -10.2 °C 1013.8 hPa South 8 km/h 12.9 km/h 74% 0 mm
22:44 -6.3 °C -9.7 °C 1014.1 hPa SSE 6.4 km/h 12.9 km/h 77% 0 mm
22:49 -6.3 °C -9.6 °C 1014.1 hPa SSE 4.8 km/h 12.9 km/h 78% 0 mm
22:54 -6.4 °C -9.4 °C 1014.1 hPa SSE 3.2 km/h 9.7 km/h 79% 0 mm
22:59 -6.4 °C -9.3 °C 1014.1 hPa SSE 4.8 km/h 6.4 km/h 80% 0 mm
23:04 -6.4 °C -9.3 °C 1014.1 hPa Calm   4.8 km/h 80% 0 mm
23:09 -6.4 °C -9.3 °C 1014.1 hPa Calm   4.8 km/h 80% 0 mm
23:14 -6.3 °C -9.2 °C 1014.1 hPa SSE 3.2 km/h 4.8 km/h 80% 0 mm
23:19 -6.3 °C -9.2 °C 1014.4 hPa SSE 3.2 km/h 4.8 km/h 80% 0 mm
23:24 -6.3 °C -9.2 °C 1014.1 hPa South 3.2 km/h 6.4 km/h 80% 0 mm
23:29 -6.3 °C -9.2 °C 1014.1 hPa South 3.2 km/h 6.4 km/h 80% 0 mm
23:34 -6.2 °C -8.9 °C 1014.1 hPa Calm   8 km/h 81% 0 mm
23:39 -6.2 °C -8.8 °C 1014.1 hPa SSE 3.2 km/h 6.4 km/h 82% 0 mm
23:44 -6.2 °C -8.7 °C 1014.1 hPa SSE 3.2 km/h 6.4 km/h 82% 0 mm
23:49 -6.2 °C -8.8 °C 1014.1 hPa SSE 3.2 km/h 6.4 km/h 82% 0 mm
23:54 -6.2 °C -8.6 °C 1013.8 hPa SE 3.2 km/h 8 km/h 83% 0 mm
23:59 -6.3 °C -8.6 °C 1014.1 hPa Calm   4.8 km/h 84% 0 mm
Buffalo, New York, USA
Compliments of Weather Underground - 2.5 mb